sensor_id;sensor_type;location;lat;lon;timestamp;P1;durP1;ratioP1;P2;durP2;ratioP2
41923;SDS011;27613;48.116;11.656;2024-02-16T00:00:16;4.75;;;2.95;;
41923;SDS011;27613;48.116;11.656;2024-02-16T00:02:42;6.70;;;3.17;;
41923;SDS011;27613;48.116;11.656;2024-02-16T00:05:09;6.70;;;3.17;;
41923;SDS011;27613;48.116;11.656;2024-02-16T00:07:38;7.32;;;3.25;;
41923;SDS011;27613;48.116;11.656;2024-02-16T00:10:04;6.45;;;3.15;;
41923;SDS011;27613;48.116;11.656;2024-02-16T00:12:30;6.85;;;3.45;;
41923;SDS011;27613;48.116;11.656;2024-02-16T00:14:57;5.00;;;2.67;;
41923;SDS011;27613;48.116;11.656;2024-02-16T00:17:22;5.22;;;2.70;;
41923;SDS011;27613;48.116;11.656;2024-02-16T00:19:51;4.53;;;2.50;;
41923;SDS011;27613;48.116;11.656;2024-02-16T00:22:20;8.77;;;3.25;;
41923;SDS011;27613;48.116;11.656;2024-02-16T00:24:46;4.57;;;2.75;;
41923;SDS011;27613;48.116;11.656;2024-02-16T00:27:12;5.18;;;2.85;;
41923;SDS011;27613;48.116;11.656;2024-02-16T00:29:38;4.03;;;2.80;;
41923;SDS011;27613;48.116;11.656;2024-02-16T00:32:04;6.30;;;3.15;;
41923;SDS011;27613;48.116;11.656;2024-02-16T00:34:33;6.82;;;2.83;;
41923;SDS011;27613;48.116;11.656;2024-02-16T00:37:00;4.55;;;2.70;;
41923;SDS011;27613;48.116;11.656;2024-02-16T00:39:25;4.30;;;2.72;;
41923;SDS011;27613;48.116;11.656;2024-02-16T00:41:51;4.65;;;2.80;;
41923;SDS011;27613;48.116;11.656;2024-02-16T00:44:17;7.10;;;2.92;;
41923;SDS011;27613;48.116;11.656;2024-02-16T00:46:43;6.32;;;2.78;;
41923;SDS011;27613;48.116;11.656;2024-02-16T00:49:08;6.32;;;3.15;;
41923;SDS011;27613;48.116;11.656;2024-02-16T00:51:35;5.80;;;2.80;;
41923;SDS011;27613;48.116;11.656;2024-02-16T00:54:01;5.32;;;3.22;;
41923;SDS011;27613;48.116;11.656;2024-02-16T00:56:28;6.30;;;2.90;;
41923;SDS011;27613;48.116;11.656;2024-02-16T00:58:54;5.13;;;2.50;;
41923;SDS011;27613;48.116;11.656;2024-02-16T01:01:19;6.53;;;3.45;;
41923;SDS011;27613;48.116;11.656;2024-02-16T01:03:47;5.53;;;2.75;;
41923;SDS011;27613;48.116;11.656;2024-02-16T01:06:13;4.75;;;2.70;;
41923;SDS011;27613;48.116;11.656;2024-02-16T01:08:39;5.07;;;3.20;;
41923;SDS011;27613;48.116;11.656;2024-02-16T01:11:04;5.38;;;2.88;;
41923;SDS011;27613;48.116;11.656;2024-02-16T01:13:30;9.65;;;2.65;;
41923;SDS011;27613;48.116;11.656;2024-02-16T01:15:56;7.15;;;2.80;;
41923;SDS011;27613;48.116;11.656;2024-02-16T01:18:21;6.05;;;2.88;;
41923;SDS011;27613;48.116;11.656;2024-02-16T01:20:47;7.72;;;3.08;;
41923;SDS011;27613;48.116;11.656;2024-02-16T01:23:13;5.78;;;2.83;;
41923;SDS011;27613;48.116;11.656;2024-02-16T01:25:38;4.93;;;2.80;;
41923;SDS011;27613;48.116;11.656;2024-02-16T01:28:04;8.40;;;4.03;;
41923;SDS011;27613;48.116;11.656;2024-02-16T01:30:29;5.72;;;3.80;;
41923;SDS011;27613;48.116;11.656;2024-02-16T01:32:55;6.53;;;3.53;;
41923;SDS011;27613;48.116;11.656;2024-02-16T01:35:20;6.88;;;3.40;;
41923;SDS011;27613;48.116;11.656;2024-02-16T01:37:46;5.18;;;3.10;;
41923;SDS011;27613;48.116;11.656;2024-02-16T01:40:12;6.05;;;3.13;;
41923;SDS011;27613;48.116;11.656;2024-02-16T01:42:46;5.03;;;2.78;;
41923;SDS011;27613;48.116;11.656;2024-02-16T01:45:12;4.82;;;3.00;;
41923;SDS011;27613;48.116;11.656;2024-02-16T01:47:38;4.68;;;2.92;;
41923;SDS011;27613;48.116;11.656;2024-02-16T01:50:06;5.32;;;2.95;;
41923;SDS011;27613;48.116;11.656;2024-02-16T01:52:33;5.03;;;2.88;;
41923;SDS011;27613;48.116;11.656;2024-02-16T01:55:01;6.47;;;3.05;;
41923;SDS011;27613;48.116;11.656;2024-02-16T01:57:29;7.18;;;3.40;;
41923;SDS011;27613;48.116;11.656;2024-02-16T01:59:55;3.90;;;2.53;;
41923;SDS011;27613;48.116;11.656;2024-02-16T02:02:21;6.43;;;3.13;;
41923;SDS011;27613;48.116;11.656;2024-02-16T02:04:46;8.00;;;2.90;;
41923;SDS011;27613;48.116;11.656;2024-02-16T02:07:12;11.73;;;3.10;;
41923;SDS011;27613;48.116;11.656;2024-02-16T02:09:39;6.38;;;3.53;;
41923;SDS011;27613;48.116;11.656;2024-02-16T02:12:04;6.60;;;2.95;;
41923;SDS011;27613;48.116;11.656;2024-02-16T02:14:30;10.98;;;3.42;;
41923;SDS011;27613;48.116;11.656;2024-02-16T02:16:55;6.45;;;3.17;;
41923;SDS011;27613;48.116;11.656;2024-02-16T02:19:21;6.43;;;2.78;;
41923;SDS011;27613;48.116;11.656;2024-02-16T02:21:46;5.63;;;2.83;;
41923;SDS011;27613;48.116;11.656;2024-02-16T02:24:12;5.28;;;3.00;;
41923;SDS011;27613;48.116;11.656;2024-02-16T02:26:38;5.25;;;2.67;;
41923;SDS011;27613;48.116;11.656;2024-02-16T02:29:04;5.97;;;2.88;;
41923;SDS011;27613;48.116;11.656;2024-02-16T02:31:30;5.25;;;2.72;;
41923;SDS011;27613;48.116;11.656;2024-02-16T02:33:55;4.00;;;2.60;;
41923;SDS011;27613;48.116;11.656;2024-02-16T02:36:21;4.57;;;2.83;;
41923;SDS011;27613;48.116;11.656;2024-02-16T02:38:46;4.43;;;2.80;;
41923;SDS011;27613;48.116;11.656;2024-02-16T02:41:12;10.02;;;3.40;;
41923;SDS011;27613;48.116;11.656;2024-02-16T02:43:41;3.65;;;2.40;;
41923;SDS011;27613;48.116;11.656;2024-02-16T02:46:06;3.88;;;2.20;;
41923;SDS011;27613;48.116;11.656;2024-02-16T02:48:32;3.92;;;2.13;;
41923;SDS011;27613;48.116;11.656;2024-02-16T02:50:58;3.13;;;2.10;;
41923;SDS011;27613;48.116;11.656;2024-02-16T02:53:24;4.60;;;2.58;;
41923;SDS011;27613;48.116;11.656;2024-02-16T02:55:52;3.58;;;2.22;;
41923;SDS011;27613;48.116;11.656;2024-02-16T02:58:18;4.53;;;2.35;;
41923;SDS011;27613;48.116;11.656;2024-02-16T03:00:44;3.20;;;2.00;;
41923;SDS011;27613;48.116;11.656;2024-02-16T03:03:09;3.83;;;2.17;;
41923;SDS011;27613;48.116;11.656;2024-02-16T03:05:35;6.32;;;2.53;;
41923;SDS011;27613;48.116;11.656;2024-02-16T03:08:00;4.82;;;2.50;;
41923;SDS011;27613;48.116;11.656;2024-02-16T03:10:27;4.93;;;2.70;;
41923;SDS011;27613;48.116;11.656;2024-02-16T03:12:56;6.05;;;2.70;;
41923;SDS011;27613;48.116;11.656;2024-02-16T03:15:21;5.97;;;2.47;;
41923;SDS011;27613;48.116;11.656;2024-02-16T03:17:47;3.63;;;2.38;;
41923;SDS011;27613;48.116;11.656;2024-02-16T03:20:12;4.72;;;2.80;;
41923;SDS011;27613;48.116;11.656;2024-02-16T03:22:38;5.15;;;2.50;;
41923;SDS011;27613;48.116;11.656;2024-02-16T03:25:03;5.15;;;2.63;;
41923;SDS011;27613;48.116;11.656;2024-02-16T03:27:30;4.60;;;2.25;;
41923;SDS011;27613;48.116;11.656;2024-02-16T03:29:55;5.20;;;2.70;;
41923;SDS011;27613;48.116;11.656;2024-02-16T03:32:21;7.00;;;2.35;;
41923;SDS011;27613;48.116;11.656;2024-02-16T03:34:46;5.15;;;2.40;;
41923;SDS011;27613;48.116;11.656;2024-02-16T03:37:12;4.30;;;2.47;;
41923;SDS011;27613;48.116;11.656;2024-02-16T03:39:37;5.25;;;2.88;;
41923;SDS011;27613;48.116;11.656;2024-02-16T03:42:03;5.10;;;2.58;;
41923;SDS011;27613;48.116;11.656;2024-02-16T03:44:28;5.95;;;2.85;;
41923;SDS011;27613;48.116;11.656;2024-02-16T03:46:54;3.50;;;2.35;;
41923;SDS011;27613;48.116;11.656;2024-02-16T03:49:20;4.70;;;2.47;;
41923;SDS011;27613;48.116;11.656;2024-02-16T03:51:45;5.18;;;2.55;;
41923;SDS011;27613;48.116;11.656;2024-02-16T03:54:12;5.18;;;2.60;;
41923;SDS011;27613;48.116;11.656;2024-02-16T03:56:37;6.00;;;2.92;;
41923;SDS011;27613;48.116;11.656;2024-02-16T03:59:03;4.45;;;2.35;;
41923;SDS011;27613;48.116;11.656;2024-02-16T04:01:30;3.72;;;2.22;;
41923;SDS011;27613;48.116;11.656;2024-02-16T04:03:56;4.45;;;2.40;;
41923;SDS011;27613;48.116;11.656;2024-02-16T04:06:21;5.63;;;2.22;;
41923;SDS011;27613;48.116;11.656;2024-02-16T04:08:47;4.35;;;2.40;;
41923;SDS011;27613;48.116;11.656;2024-02-16T04:11:13;3.38;;;1.92;;
41923;SDS011;27613;48.116;11.656;2024-02-16T04:13:40;3.65;;;2.22;;
41923;SDS011;27613;48.116;11.656;2024-02-16T04:16:06;5.28;;;2.22;;
41923;SDS011;27613;48.116;11.656;2024-02-16T04:18:31;3.03;;;1.77;;
41923;SDS011;27613;48.116;11.656;2024-02-16T04:20:57;3.95;;;2.00;;
41923;SDS011;27613;48.116;11.656;2024-02-16T04:23:22;5.85;;;2.00;;
41923;SDS011;27613;48.116;11.656;2024-02-16T04:25:48;3.10;;;2.03;;
41923;SDS011;27613;48.116;11.656;2024-02-16T04:28:13;2.33;;;1.52;;
41923;SDS011;27613;48.116;11.656;2024-02-16T04:30:39;2.70;;;1.80;;
41923;SDS011;27613;48.116;11.656;2024-02-16T04:33:05;2.22;;;1.60;;
41923;SDS011;27613;48.116;11.656;2024-02-16T04:35:30;2.80;;;1.60;;
41923;SDS011;27613;48.116;11.656;2024-02-16T04:37:56;3.70;;;1.77;;
41923;SDS011;27613;48.116;11.656;2024-02-16T04:40:21;3.72;;;2.00;;
41923;SDS011;27613;48.116;11.656;2024-02-16T04:42:47;3.45;;;1.80;;
41923;SDS011;27613;48.116;11.656;2024-02-16T04:45:12;2.95;;;1.30;;
41923;SDS011;27613;48.116;11.656;2024-02-16T04:47:38;4.65;;;1.58;;
41923;SDS011;27613;48.116;11.656;2024-02-16T04:50:04;4.63;;;2.20;;
41923;SDS011;27613;48.116;11.656;2024-02-16T04:52:37;3.30;;;1.67;;
41923;SDS011;27613;48.116;11.656;2024-02-16T04:55:05;6.85;;;1.45;;
41923;SDS011;27613;48.116;11.656;2024-02-16T04:57:31;2.92;;;1.63;;
41923;SDS011;27613;48.116;11.656;2024-02-16T04:59:58;3.13;;;1.67;;
41923;SDS011;27613;48.116;11.656;2024-02-16T05:02:23;3.35;;;1.65;;
41923;SDS011;27613;48.116;11.656;2024-02-16T05:04:49;2.40;;;1.60;;
41923;SDS011;27613;48.116;11.656;2024-02-16T05:07:14;2.95;;;1.77;;
41923;SDS011;27613;48.116;11.656;2024-02-16T05:09:40;3.75;;;2.28;;
41923;SDS011;27613;48.116;11.656;2024-02-16T05:12:06;4.82;;;2.30;;
41923;SDS011;27613;48.116;11.656;2024-02-16T05:14:33;4.15;;;2.00;;
41923;SDS011;27613;48.116;11.656;2024-02-16T05:17:00;5.60;;;2.00;;
41923;SDS011;27613;48.116;11.656;2024-02-16T05:19:25;4.35;;;1.52;;
41923;SDS011;27613;48.116;11.656;2024-02-16T05:21:51;2.78;;;1.63;;
41923;SDS011;27613;48.116;11.656;2024-02-16T05:24:16;2.05;;;1.35;;
41923;SDS011;27613;48.116;11.656;2024-02-16T05:26:42;3.38;;;1.98;;
41923;SDS011;27613;48.116;11.656;2024-02-16T05:29:09;1.83;;;1.33;;
41923;SDS011;27613;48.116;11.656;2024-02-16T05:31:34;2.65;;;1.63;;
41923;SDS011;27613;48.116;11.656;2024-02-16T05:34:00;4.00;;;1.75;;
41923;SDS011;27613;48.116;11.656;2024-02-16T05:36:25;3.28;;;2.03;;
41923;SDS011;27613;48.116;11.656;2024-02-16T05:38:55;2.50;;;1.50;;
41923;SDS011;27613;48.116;11.656;2024-02-16T05:41:21;7.55;;;1.60;;
41923;SDS011;27613;48.116;11.656;2024-02-16T05:43:47;3.25;;;1.80;;
41923;SDS011;27613;48.116;11.656;2024-02-16T05:46:17;6.07;;;1.95;;
41923;SDS011;27613;48.116;11.656;2024-02-16T05:48:43;2.20;;;1.50;;
41923;SDS011;27613;48.116;11.656;2024-02-16T05:51:09;2.63;;;1.77;;
41923;SDS011;27613;48.116;11.656;2024-02-16T05:53:37;3.42;;;1.42;;
41923;SDS011;27613;48.116;11.656;2024-02-16T05:56:03;4.93;;;1.70;;
41923;SDS011;27613;48.116;11.656;2024-02-16T05:58:30;4.53;;;2.33;;
41923;SDS011;27613;48.116;11.656;2024-02-16T06:00:55;3.05;;;1.80;;
41923;SDS011;27613;48.116;11.656;2024-02-16T06:03:22;6.68;;;1.98;;
41923;SDS011;27613;48.116;11.656;2024-02-16T06:05:48;4.25;;;1.95;;
41923;SDS011;27613;48.116;11.656;2024-02-16T06:08:13;4.00;;;2.40;;
41923;SDS011;27613;48.116;11.656;2024-02-16T06:10:40;7.07;;;2.58;;
41923;SDS011;27613;48.116;11.656;2024-02-16T06:13:07;4.07;;;2.50;;
41923;SDS011;27613;48.116;11.656;2024-02-16T06:15:33;4.32;;;2.47;;
41923;SDS011;27613;48.116;11.656;2024-02-16T06:17:59;4.35;;;2.17;;
41923;SDS011;27613;48.116;11.656;2024-02-16T06:20:25;6.13;;;2.53;;
41923;SDS011;27613;48.116;11.656;2024-02-16T06:22:51;4.03;;;2.25;;
41923;SDS011;27613;48.116;11.656;2024-02-16T06:25:16;5.00;;;2.33;;
41923;SDS011;27613;48.116;11.656;2024-02-16T06:27:42;5.93;;;2.00;;
41923;SDS011;27613;48.116;11.656;2024-02-16T06:30:08;4.88;;;2.20;;
41923;SDS011;27613;48.116;11.656;2024-02-16T06:32:37;10.02;;;2.28;;
41923;SDS011;27613;48.116;11.656;2024-02-16T06:35:06;3.75;;;1.92;;
41923;SDS011;27613;48.116;11.656;2024-02-16T06:37:33;5.28;;;2.03;;
41923;SDS011;27613;48.116;11.656;2024-02-16T06:39:58;3.17;;;1.90;;
41923;SDS011;27613;48.116;11.656;2024-02-16T06:42:24;5.45;;;1.83;;
41923;SDS011;27613;48.116;11.656;2024-02-16T06:44:49;5.55;;;2.03;;
41923;SDS011;27613;48.116;11.656;2024-02-16T06:47:15;3.63;;;2.00;;
41923;SDS011;27613;48.116;11.656;2024-02-16T06:49:40;3.65;;;1.90;;
41923;SDS011;27613;48.116;11.656;2024-02-16T06:52:06;2.60;;;1.70;;
41923;SDS011;27613;48.116;11.656;2024-02-16T06:54:32;4.57;;;1.90;;
41923;SDS011;27613;48.116;11.656;2024-02-16T06:56:57;3.25;;;1.60;;
41923;SDS011;27613;48.116;11.656;2024-02-16T06:59:23;4.20;;;2.45;;
41923;SDS011;27613;48.116;11.656;2024-02-16T07:01:48;7.35;;;1.60;;
41923;SDS011;27613;48.116;11.656;2024-02-16T07:04:14;4.13;;;1.80;;
41923;SDS011;27613;48.116;11.656;2024-02-16T07:06:39;4.75;;;1.65;;
41923;SDS011;27613;48.116;11.656;2024-02-16T07:09:06;4.30;;;1.55;;
41923;SDS011;27613;48.116;11.656;2024-02-16T07:11:31;2.97;;;1.50;;
41923;SDS011;27613;48.116;11.656;2024-02-16T07:13:59;5.70;;;2.00;;
41923;SDS011;27613;48.116;11.656;2024-02-16T07:16:27;5.03;;;2.13;;
41923;SDS011;27613;48.116;11.656;2024-02-16T07:18:52;3.22;;;1.80;;
41923;SDS011;27613;48.116;11.656;2024-02-16T07:21:18;6.50;;;1.95;;
41923;SDS011;27613;48.116;11.656;2024-02-16T07:23:45;7.18;;;2.60;;
41923;SDS011;27613;48.116;11.656;2024-02-16T07:26:11;5.47;;;2.13;;
41923;SDS011;27613;48.116;11.656;2024-02-16T07:28:38;4.72;;;2.17;;
41923;SDS011;27613;48.116;11.656;2024-02-16T07:31:03;5.05;;;1.95;;
41923;SDS011;27613;48.116;11.656;2024-02-16T07:33:29;5.78;;;1.85;;
41923;SDS011;27613;48.116;11.656;2024-02-16T07:35:54;3.78;;;1.83;;
41923;SDS011;27613;48.116;11.656;2024-02-16T07:38:20;18.00;;;2.10;;
41923;SDS011;27613;48.116;11.656;2024-02-16T07:40:46;5.07;;;2.17;;
41923;SDS011;27613;48.116;11.656;2024-02-16T07:43:12;7.80;;;1.98;;
41923;SDS011;27613;48.116;11.656;2024-02-16T07:45:38;4.20;;;1.90;;
41923;SDS011;27613;48.116;11.656;2024-02-16T07:48:04;3.78;;;1.67;;
41923;SDS011;27613;48.116;11.656;2024-02-16T07:50:30;9.52;;;2.53;;
41923;SDS011;27613;48.116;11.656;2024-02-16T07:52:56;5.72;;;2.20;;
41923;SDS011;27613;48.116;11.656;2024-02-16T07:55:22;6.28;;;2.80;;
41923;SDS011;27613;48.116;11.656;2024-02-16T07:57:49;5.63;;;2.53;;
41923;SDS011;27613;48.116;11.656;2024-02-16T08:00:15;3.67;;;2.17;;
41923;SDS011;27613;48.116;11.656;2024-02-16T08:02:41;5.47;;;2.60;;
41923;SDS011;27613;48.116;11.656;2024-02-16T08:05:08;6.20;;;2.05;;
41923;SDS011;27613;48.116;11.656;2024-02-16T08:07:37;4.45;;;2.00;;
41923;SDS011;27613;48.116;11.656;2024-02-16T08:10:03;4.70;;;2.17;;
41923;SDS011;27613;48.116;11.656;2024-02-16T08:12:29;4.32;;;2.03;;
41923;SDS011;27613;48.116;11.656;2024-02-16T08:14:56;5.18;;;2.03;;
41923;SDS011;27613;48.116;11.656;2024-02-16T08:17:23;6.93;;;1.83;;
41923;SDS011;27613;48.116;11.656;2024-02-16T08:19:52;4.78;;;1.90;;
41923;SDS011;27613;48.116;11.656;2024-02-16T08:22:19;5.20;;;1.60;;
41923;SDS011;27613;48.116;11.656;2024-02-16T08:24:45;4.43;;;1.85;;
41923;SDS011;27613;48.116;11.656;2024-02-16T08:27:15;3.45;;;1.67;;
41923;SDS011;27613;48.116;11.656;2024-02-16T08:29:41;4.93;;;1.65;;
41923;SDS011;27613;48.116;11.656;2024-02-16T08:32:06;3.85;;;1.98;;
41923;SDS011;27613;48.116;11.656;2024-02-16T08:34:33;4.75;;;1.40;;
41923;SDS011;27613;48.116;11.656;2024-02-16T08:37:01;2.38;;;1.40;;
41923;SDS011;27613;48.116;11.656;2024-02-16T08:39:28;4.90;;;1.42;;
41923;SDS011;27613;48.116;11.656;2024-02-16T08:41:54;2.25;;;1.40;;
41923;SDS011;27613;48.116;11.656;2024-02-16T08:44:20;2.65;;;1.38;;
41923;SDS011;27613;48.116;11.656;2024-02-16T08:46:46;3.75;;;1.58;;
41923;SDS011;27613;48.116;11.656;2024-02-16T08:49:13;2.92;;;1.45;;
41923;SDS011;27613;48.116;11.656;2024-02-16T08:51:39;2.55;;;1.40;;
41923;SDS011;27613;48.116;11.656;2024-02-16T08:54:05;2.33;;;1.38;;
41923;SDS011;27613;48.116;11.656;2024-02-16T08:56:30;2.33;;;1.38;;
41923;SDS011;27613;48.116;11.656;2024-02-16T08:58:57;3.13;;;1.70;;
41923;SDS011;27613;48.116;11.656;2024-02-16T09:01:29;1.48;;;1.10;;
41923;SDS011;27613;48.116;11.656;2024-02-16T09:03:56;8.88;;;1.48;;
41923;SDS011;27613;48.116;11.656;2024-02-16T09:06:21;9.50;;;6.15;;
41923;SDS011;27613;48.116;11.656;2024-02-16T09:08:47;5.30;;;2.40;;
41923;SDS011;27613;48.116;11.656;2024-02-16T09:11:12;3.75;;;2.22;;
41923;SDS011;27613;48.116;11.656;2024-02-16T09:13:39;3.75;;;1.52;;
41923;SDS011;27613;48.116;11.656;2024-02-16T09:16:05;3.08;;;1.90;;
41923;SDS011;27613;48.116;11.656;2024-02-16T09:18:32;3.72;;;1.60;;
41923;SDS011;27613;48.116;11.656;2024-02-16T09:20:58;2.03;;;1.30;;
41923;SDS011;27613;48.116;11.656;2024-02-16T09:23:24;6.05;;;1.70;;
41923;SDS011;27613;48.116;11.656;2024-02-16T09:25:49;3.20;;;1.55;;
41923;SDS011;27613;48.116;11.656;2024-02-16T09:28:16;2.22;;;1.23;;
41923;SDS011;27613;48.116;11.656;2024-02-16T09:30:44;3.42;;;1.40;;
41923;SDS011;27613;48.116;11.656;2024-02-16T09:33:09;2.58;;;1.50;;
41923;SDS011;27613;48.116;11.656;2024-02-16T09:35:35;3.97;;;1.70;;
41923;SDS011;27613;48.116;11.656;2024-02-16T09:38:01;2.90;;;1.50;;
41923;SDS011;27613;48.116;11.656;2024-02-16T09:40:26;6.70;;;2.00;;
41923;SDS011;27613;48.116;11.656;2024-02-16T09:42:52;2.92;;;1.63;;
41923;SDS011;27613;48.116;11.656;2024-02-16T09:45:17;4.07;;;1.80;;
41923;SDS011;27613;48.116;11.656;2024-02-16T09:47:44;3.10;;;1.42;;
41923;SDS011;27613;48.116;11.656;2024-02-16T09:50:11;3.47;;;1.52;;
41923;SDS011;27613;48.116;11.656;2024-02-16T09:52:37;5.47;;;1.20;;
41923;SDS011;27613;48.116;11.656;2024-02-16T09:55:03;4.05;;;1.17;;
41923;SDS011;27613;48.116;11.656;2024-02-16T09:57:32;2.72;;;1.40;;
41923;SDS011;27613;48.116;11.656;2024-02-16T09:59:57;2.58;;;1.30;;
41923;SDS011;27613;48.116;11.656;2024-02-16T10:02:23;3.00;;;1.40;;
41923;SDS011;27613;48.116;11.656;2024-02-16T10:04:48;2.97;;;1.13;;
41923;SDS011;27613;48.116;11.656;2024-02-16T10:07:14;2.42;;;1.17;;
41923;SDS011;27613;48.116;11.656;2024-02-16T10:09:40;1.92;;;0.80;;
41923;SDS011;27613;48.116;11.656;2024-02-16T10:12:06;1.40;;;0.88;;
41923;SDS011;27613;48.116;11.656;2024-02-16T10:14:32;2.25;;;0.80;;
41923;SDS011;27613;48.116;11.656;2024-02-16T10:17:01;1.98;;;1.17;;
41923;SDS011;27613;48.116;11.656;2024-02-16T10:19:28;1.48;;;0.95;;
41923;SDS011;27613;48.116;11.656;2024-02-16T10:22:04;12.65;;;1.20;;
41923;SDS011;27613;48.116;11.656;2024-02-16T10:24:32;1.38;;;0.98;;
41923;SDS011;27613;48.116;11.656;2024-02-16T10:26:57;1.70;;;0.90;;
41923;SDS011;27613;48.116;11.656;2024-02-16T10:29:23;0.98;;;0.88;;
41923;SDS011;27613;48.116;11.656;2024-02-16T10:31:51;2.88;;;1.08;;
41923;SDS011;27613;48.116;11.656;2024-02-16T10:34:17;2.10;;;0.90;;
41923;SDS011;27613;48.116;11.656;2024-02-16T10:36:46;1.08;;;0.98;;
41923;SDS011;27613;48.116;11.656;2024-02-16T10:39:12;1.17;;;0.88;;
41923;SDS011;27613;48.116;11.656;2024-02-16T10:41:39;1.15;;;0.80;;
41923;SDS011;27613;48.116;11.656;2024-02-16T10:44:06;2.50;;;0.88;;
41923;SDS011;27613;48.116;11.656;2024-02-16T10:46:32;2.15;;;0.80;;
41923;SDS011;27613;48.116;11.656;2024-02-16T10:48:59;1.35;;;1.00;;
41923;SDS011;27613;48.116;11.656;2024-02-16T10:51:30;1.50;;;0.73;;
41923;SDS011;27613;48.116;11.656;2024-02-16T10:54:00;1.02;;;0.80;;
41923;SDS011;27613;48.116;11.656;2024-02-16T10:56:27;1.77;;;0.90;;
41923;SDS011;27613;48.116;11.656;2024-02-16T10:58:59;2.75;;;1.08;;
41923;SDS011;27613;48.116;11.656;2024-02-16T11:01:27;2.60;;;1.00;;
41923;SDS011;27613;48.116;11.656;2024-02-16T11:04:00;1.67;;;0.88;;
41923;SDS011;27613;48.116;11.656;2024-02-16T11:06:27;0.93;;;0.80;;
41923;SDS011;27613;48.116;11.656;2024-02-16T11:08:53;2.58;;;1.10;;
41923;SDS011;27613;48.116;11.656;2024-02-16T11:11:24;2.53;;;1.25;;
41923;SDS011;27613;48.116;11.656;2024-02-16T11:13:50;1.50;;;0.93;;
41923;SDS011;27613;48.116;11.656;2024-02-16T11:16:21;3.15;;;1.00;;
41923;SDS011;27613;48.116;11.656;2024-02-16T11:18:47;1.92;;;1.08;;
41923;SDS011;27613;48.116;11.656;2024-02-16T11:21:14;2.25;;;1.10;;
41923;SDS011;27613;48.116;11.656;2024-02-16T11:23:41;1.70;;;0.77;;
41923;SDS011;27613;48.116;11.656;2024-02-16T11:26:10;1.00;;;0.80;;
41923;SDS011;27613;48.116;11.656;2024-02-16T11:28:42;1.08;;;0.90;;
41923;SDS011;27613;48.116;11.656;2024-02-16T11:31:08;2.75;;;1.30;;
41923;SDS011;27613;48.116;11.656;2024-02-16T11:33:34;0.70;;;0.70;;
41923;SDS011;27613;48.116;11.656;2024-02-16T11:36:01;1.52;;;1.05;;
41923;SDS011;27613;48.116;11.656;2024-02-16T11:38:37;2.22;;;1.20;;
41923;SDS011;27613;48.116;11.656;2024-02-16T11:41:04;5.93;;;1.10;;
41923;SDS011;27613;48.116;11.656;2024-02-16T11:43:35;2.88;;;1.70;;
41923;SDS011;27613;48.116;11.656;2024-02-16T11:46:10;1.52;;;0.95;;
41923;SDS011;27613;48.116;11.656;2024-02-16T11:48:37;1.48;;;0.98;;
41923;SDS011;27613;48.116;11.656;2024-02-16T11:51:03;1.38;;;0.90;;
41923;SDS011;27613;48.116;11.656;2024-02-16T11:53:29;1.08;;;0.95;;
41923;SDS011;27613;48.116;11.656;2024-02-16T11:55:56;1.33;;;0.95;;
41923;SDS011;27613;48.116;11.656;2024-02-16T11:58:21;1.33;;;1.00;;
41923;SDS011;27613;48.116;11.656;2024-02-16T12:00:48;2.20;;;1.13;;
41923;SDS011;27613;48.116;11.656;2024-02-16T12:03:19;1.10;;;0.75;;
41923;SDS011;27613;48.116;11.656;2024-02-16T12:05:55;7.03;;;1.25;;
41923;SDS011;27613;48.116;11.656;2024-02-16T12:08:22;1.10;;;0.90;;
41923;SDS011;27613;48.116;11.656;2024-02-16T12:10:49;1.40;;;0.98;;
41923;SDS011;27613;48.116;11.656;2024-02-16T12:13:15;4.80;;;1.00;;
41923;SDS011;27613;48.116;11.656;2024-02-16T12:15:47;2.47;;;1.00;;
41923;SDS011;27613;48.116;11.656;2024-02-16T12:18:20;1.42;;;0.95;;
41923;SDS011;27613;48.116;11.656;2024-02-16T12:21:03;2.53;;;1.05;;
41923;SDS011;27613;48.116;11.656;2024-02-16T12:23:30;2.15;;;1.13;;
41923;SDS011;27613;48.116;11.656;2024-02-16T12:25:56;3.03;;;1.17;;
41923;SDS011;27613;48.116;11.656;2024-02-16T12:28:26;2.10;;;1.17;;
41923;SDS011;27613;48.116;11.656;2024-02-16T12:30:53;1.67;;;1.02;;
41923;SDS011;27613;48.116;11.656;2024-02-16T12:33:20;2.70;;;1.30;;
41923;SDS011;27613;48.116;11.656;2024-02-16T12:35:47;1.77;;;1.10;;
41923;SDS011;27613;48.116;11.656;2024-02-16T12:38:13;1.02;;;0.90;;
41923;SDS011;27613;48.116;11.656;2024-02-16T12:40:38;2.08;;;1.10;;
41923;SDS011;27613;48.116;11.656;2024-02-16T12:43:04;2.55;;;1.20;;
41923;SDS011;27613;48.116;11.656;2024-02-16T12:45:29;2.58;;;1.30;;
41923;SDS011;27613;48.116;11.656;2024-02-16T12:47:56;4.85;;;1.17;;
41923;SDS011;27613;48.116;11.656;2024-02-16T12:50:22;2.13;;;1.15;;
41923;SDS011;27613;48.116;11.656;2024-02-16T12:52:47;1.20;;;0.88;;
41923;SDS011;27613;48.116;11.656;2024-02-16T12:55:13;1.75;;;1.10;;
41923;SDS011;27613;48.116;11.656;2024-02-16T12:57:39;2.05;;;1.30;;
41923;SDS011;27613;48.116;11.656;2024-02-16T13:00:04;1.27;;;1.08;;
41923;SDS011;27613;48.116;11.656;2024-02-16T13:02:30;4.10;;;1.15;;
41923;SDS011;27613;48.116;11.656;2024-02-16T13:04:56;2.60;;;1.05;;
41923;SDS011;27613;48.116;11.656;2024-02-16T13:07:22;4.25;;;1.00;;
41923;SDS011;27613;48.116;11.656;2024-02-16T13:09:48;1.17;;;1.00;;
41923;SDS011;27613;48.116;11.656;2024-02-16T13:12:16;3.20;;;1.35;;
41923;SDS011;27613;48.116;11.656;2024-02-16T13:14:42;3.85;;;1.13;;
41923;SDS011;27613;48.116;11.656;2024-02-16T13:17:07;1.63;;;0.95;;
41923;SDS011;27613;48.116;11.656;2024-02-16T13:19:33;1.17;;;0.90;;
41923;SDS011;27613;48.116;11.656;2024-02-16T13:21:58;2.65;;;1.25;;
41923;SDS011;27613;48.116;11.656;2024-02-16T13:24:24;2.45;;;1.20;;
41923;SDS011;27613;48.116;11.656;2024-02-16T13:26:49;2.72;;;1.45;;
41923;SDS011;27613;48.116;11.656;2024-02-16T13:29:15;5.22;;;1.02;;
41923;SDS011;27613;48.116;11.656;2024-02-16T13:31:40;2.08;;;1.10;;
41923;SDS011;27613;48.116;11.656;2024-02-16T13:34:07;2.45;;;1.00;;
41923;SDS011;27613;48.116;11.656;2024-02-16T13:36:33;2.80;;;1.20;;
41923;SDS011;27613;48.116;11.656;2024-02-16T13:38:58;4.05;;;1.27;;
41923;SDS011;27613;48.116;11.656;2024-02-16T13:41:24;2.78;;;1.30;;
41923;SDS011;27613;48.116;11.656;2024-02-16T13:43:50;1.42;;;1.10;;
41923;SDS011;27613;48.116;11.656;2024-02-16T13:46:16;4.35;;;1.60;;
41923;SDS011;27613;48.116;11.656;2024-02-16T13:48:42;3.38;;;1.48;;
41923;SDS011;27613;48.116;11.656;2024-02-16T13:51:08;2.97;;;1.30;;
41923;SDS011;27613;48.116;11.656;2024-02-16T13:53:34;1.63;;;1.00;;
41923;SDS011;27613;48.116;11.656;2024-02-16T13:56:01;1.83;;;1.02;;
41923;SDS011;27613;48.116;11.656;2024-02-16T13:58:29;2.60;;;1.15;;
41923;SDS011;27613;48.116;11.656;2024-02-16T14:00:55;2.63;;;1.17;;
41923;SDS011;27613;48.116;11.656;2024-02-16T14:03:21;2.30;;;1.23;;
41923;SDS011;27613;48.116;11.656;2024-02-16T14:05:47;1.88;;;1.02;;
41923;SDS011;27613;48.116;11.656;2024-02-16T14:08:12;2.28;;;1.40;;
41923;SDS011;27613;48.116;11.656;2024-02-16T14:10:39;3.50;;;1.30;;
41923;SDS011;27613;48.116;11.656;2024-02-16T14:13:05;4.35;;;1.52;;
41923;SDS011;27613;48.116;11.656;2024-02-16T14:15:31;1.88;;;1.13;;
41923;SDS011;27613;48.116;11.656;2024-02-16T14:17:56;2.50;;;1.23;;
41923;SDS011;27613;48.116;11.656;2024-02-16T14:20:22;2.60;;;1.10;;
41923;SDS011;27613;48.116;11.656;2024-02-16T14:22:48;1.88;;;1.10;;
41923;SDS011;27613;48.116;11.656;2024-02-16T14:25:13;2.13;;;1.20;;
41923;SDS011;27613;48.116;11.656;2024-02-16T14:27:39;2.88;;;1.40;;